Terminal Aerodrome Forecast
Issued by NWS

Home | Current Version | Previous Version | Graphics & Text | Print | Product List | Glossary On
Versions: 1 2 3 4 5 6 7 8 9 10 11 12 13 14 15 16 17 18 19 20 21 22 23 24 25 26 27
000
FTUS43 KUNR 221720
TAFGCC
TAF
KGCC 221720Z 2218/2318 14015G25KT P6SM SCT025 BKN060
      TEMPO 2218/2221 BKN020
     FM222100 15020G30KT P6SM -SHRA BKN020
     FM230300 14015G25KT P6SM -SHRA BKN010=

USA.gov is the U.S. government's official web portal to all federal, state and local government web resources and services.